sensor_id;sensor_type;location;lat;lon;timestamp;temperature;humidity
70706;DHT22;59320;52.316;10.870;2023-04-23T00:01:26;17.60;66.40
70706;DHT22;59320;52.316;10.870;2023-04-23T00:03:55;17.50;66.70
70706;DHT22;59320;52.316;10.870;2023-04-23T00:06:23;17.50;67.10
70706;DHT22;59320;52.316;10.870;2023-04-23T00:08:53;17.50;67.60
70706;DHT22;59320;52.316;10.870;2023-04-23T00:11:22;17.40;68.10
70706;DHT22;59320;52.316;10.870;2023-04-23T00:13:50;17.40;68.00
70706;DHT22;59320;52.316;10.870;2023-04-23T00:16:19;17.40;68.50
70706;DHT22;59320;52.316;10.870;2023-04-23T00:18:46;17.40;68.80
70706;DHT22;59320;52.316;10.870;2023-04-23T00:21:14;17.40;69.10
70706;DHT22;59320;52.316;10.870;2023-04-23T00:23:41;17.40;68.90
70706;DHT22;59320;52.316;10.870;2023-04-23T00:26:09;17.40;69.50
70706;DHT22;59320;52.316;10.870;2023-04-23T00:28:36;17.40;69.40
70706;DHT22;59320;52.316;10.870;2023-04-23T00:31:03;17.40;69.90
70706;DHT22;59320;52.316;10.870;2023-04-23T00:33:31;17.50;70.00
70706;DHT22;59320;52.316;10.870;2023-04-23T00:35:59;17.50;71.30
70706;DHT22;59320;52.316;10.870;2023-04-23T00:38:26;17.40;71.90
70706;DHT22;59320;52.316;10.870;2023-04-23T00:40:53;17.40;72.60
70706;DHT22;59320;52.316;10.870;2023-04-23T00:43:21;17.30;73.90
70706;DHT22;59320;52.316;10.870;2023-04-23T00:45:49;17.20;73.70
70706;DHT22;59320;52.316;10.870;2023-04-23T00:48:17;17.30;74.20
70706;DHT22;59320;52.316;10.870;2023-04-23T00:50:44;17.40;73.60
70706;DHT22;59320;52.316;10.870;2023-04-23T00:53:11;17.40;74.40
70706;DHT22;59320;52.316;10.870;2023-04-23T00:55:39;17.30;75.60
70706;DHT22;59320;52.316;10.870;2023-04-23T00:58:09;17.20;75.50
70706;DHT22;59320;52.316;10.870;2023-04-23T01:00:43;17.30;75.20
70706;DHT22;59320;52.316;10.870;2023-04-23T01:03:14;17.30;75.90
70706;DHT22;59320;52.316;10.870;2023-04-23T01:05:43;17.30;76.20
70706;DHT22;59320;52.316;10.870;2023-04-23T01:08:14;17.20;76.80
70706;DHT22;59320;52.316;10.870;2023-04-23T01:10:41;17.30;77.20
70706;DHT22;59320;52.316;10.870;2023-04-23T01:13:09;17.20;77.40
70706;DHT22;59320;52.316;10.870;2023-04-23T01:15:38;17.30;78.00
70706;DHT22;59320;52.316;10.870;2023-04-23T01:18:06;17.30;76.90
70706;DHT22;59320;52.316;10.870;2023-04-23T01:20:33;17.30;76.90
70706;DHT22;59320;52.316;10.870;2023-04-23T01:23:02;17.40;77.10
70706;DHT22;59320;52.316;10.870;2023-04-23T01:25:29;17.40;77.80
70706;DHT22;59320;52.316;10.870;2023-04-23T01:27:57;17.40;77.70
70706;DHT22;59320;52.316;10.870;2023-04-23T01:30:25;17.40;77.40
70706;DHT22;59320;52.316;10.870;2023-04-23T01:32:54;17.30;77.80
70706;DHT22;59320;52.316;10.870;2023-04-23T01:35:21;17.30;77.60
70706;DHT22;59320;52.316;10.870;2023-04-23T01:37:49;17.30;78.00
70706;DHT22;59320;52.316;10.870;2023-04-23T01:40:19;17.30;77.70
70706;DHT22;59320;52.316;10.870;2023-04-23T01:42:47;17.40;77.80
70706;DHT22;59320;52.316;10.870;2023-04-23T01:45:15;17.40;78.00
70706;DHT22;59320;52.316;10.870;2023-04-23T01:47:45;17.40;78.00
70706;DHT22;59320;52.316;10.870;2023-04-23T01:50:12;17.40;78.50
70706;DHT22;59320;52.316;10.870;2023-04-23T01:52:41;17.40;78.50
70706;DHT22;59320;52.316;10.870;2023-04-23T01:55:10;17.30;79.00
70706;DHT22;59320;52.316;10.870;2023-04-23T01:57:40;17.20;79.40
70706;DHT22;59320;52.316;10.870;2023-04-23T02:00:09;17.20;79.80
70706;DHT22;59320;52.316;10.870;2023-04-23T02:02:40;17.20;79.80
70706;DHT22;59320;52.316;10.870;2023-04-23T02:05:10;17.20;79.50
70706;DHT22;59320;52.316;10.870;2023-04-23T02:07:38;17.30;79.40
70706;DHT22;59320;52.316;10.870;2023-04-23T02:10:06;17.30;79.50
70706;DHT22;59320;52.316;10.870;2023-04-23T02:12:35;17.20;80.00
70706;DHT22;59320;52.316;10.870;2023-04-23T02:15:05;17.20;80.00
70706;DHT22;59320;52.316;10.870;2023-04-23T02:17:32;17.20;80.00
70706;DHT22;59320;52.316;10.870;2023-04-23T02:20:00;17.20;79.70
70706;DHT22;59320;52.316;10.870;2023-04-23T02:22:27;17.30;79.80
70706;DHT22;59320;52.316;10.870;2023-04-23T02:24:54;17.30;79.80
70706;DHT22;59320;52.316;10.870;2023-04-23T02:27:21;17.20;80.70
70706;DHT22;59320;52.316;10.870;2023-04-23T02:29:49;17.20;81.10
70706;DHT22;59320;52.316;10.870;2023-04-23T02:32:18;17.10;82.00
70706;DHT22;59320;52.316;10.870;2023-04-23T02:34:46;17.10;82.70
70706;DHT22;59320;52.316;10.870;2023-04-23T02:37:13;17.10;82.70
70706;DHT22;59320;52.316;10.870;2023-04-23T02:39:40;17.20;82.80
70706;DHT22;59320;52.316;10.870;2023-04-23T02:42:07;17.10;83.30
70706;DHT22;59320;52.316;10.870;2023-04-23T02:44:34;17.10;83.50
70706;DHT22;59320;52.316;10.870;2023-04-23T02:47:02;17.10;83.70
70706;DHT22;59320;52.316;10.870;2023-04-23T02:49:30;17.10;84.40
70706;DHT22;59320;52.316;10.870;2023-04-23T02:51:57;17.00;84.60
70706;DHT22;59320;52.316;10.870;2023-04-23T02:54:24;17.00;85.40
70706;DHT22;59320;52.316;10.870;2023-04-23T02:56:51;16.90;85.70
70706;DHT22;59320;52.316;10.870;2023-04-23T02:59:18;16.80;86.90
70706;DHT22;59320;52.316;10.870;2023-04-23T03:01:45;16.70;88.50
70706;DHT22;59320;52.316;10.870;2023-04-23T03:04:14;16.70;89.80
70706;DHT22;59320;52.316;10.870;2023-04-23T03:06:42;16.60;90.30
70706;DHT22;59320;52.316;10.870;2023-04-23T03:09:09;16.50;91.00
70706;DHT22;59320;52.316;10.870;2023-04-23T03:11:37;16.40;91.90
70706;DHT22;59320;52.316;10.870;2023-04-23T03:14:04;16.30;92.40
70706;DHT22;59320;52.316;10.870;2023-04-23T03:16:31;16.20;92.90
70706;DHT22;59320;52.316;10.870;2023-04-23T03:18:59;16.20;92.80
70706;DHT22;59320;52.316;10.870;2023-04-23T03:21:27;16.10;93.70
70706;DHT22;59320;52.316;10.870;2023-04-23T03:23:56;16.10;93.60
70706;DHT22;59320;52.316;10.870;2023-04-23T03:26:23;15.90;95.00
70706;DHT22;59320;52.316;10.870;2023-04-23T03:28:50;15.90;94.80
70706;DHT22;59320;52.316;10.870;2023-04-23T03:31:19;15.90;95.40
70706;DHT22;59320;52.316;10.870;2023-04-23T03:33:46;15.90;95.30
70706;DHT22;59320;52.316;10.870;2023-04-23T03:36:18;15.80;96.00
70706;DHT22;59320;52.316;10.870;2023-04-23T03:38:46;15.90;96.00
70706;DHT22;59320;52.316;10.870;2023-04-23T03:41:15;15.80;96.00
70706;DHT22;59320;52.316;10.870;2023-04-23T03:43:44;15.80;96.60
70706;DHT22;59320;52.316;10.870;2023-04-23T03:46:17;15.70;96.60
70706;DHT22;59320;52.316;10.870;2023-04-23T03:48:46;15.70;97.00
70706;DHT22;59320;52.316;10.870;2023-04-23T03:51:21;15.70;97.60
70706;DHT22;59320;52.316;10.870;2023-04-23T03:53:49;15.70;98.00
70706;DHT22;59320;52.316;10.870;2023-04-23T03:56:35;15.50;98.60
70706;DHT22;59320;52.316;10.870;2023-04-23T03:59:21;15.40;99.20
70706;DHT22;59320;52.316;10.870;2023-04-23T04:01:50;15.30;99.70
70706;DHT22;59320;52.316;10.870;2023-04-23T04:04:17;15.10;99.90
70706;DHT22;59320;52.316;10.870;2023-04-23T04:06:44;15.10;99.90
70706;DHT22;59320;52.316;10.870;2023-04-23T04:09:11;15.20;99.80
70706;DHT22;59320;52.316;10.870;2023-04-23T04:11:40;15.30;99.60
70706;DHT22;59320;52.316;10.870;2023-04-23T04:14:08;15.20;99.80
70706;DHT22;59320;52.316;10.870;2023-04-23T04:16:35;15.20;99.70
70706;DHT22;59320;52.316;10.870;2023-04-23T04:19:02;15.20;99.90
70706;DHT22;59320;52.316;10.870;2023-04-23T04:21:29;15.10;99.90
70706;DHT22;59320;52.316;10.870;2023-04-23T04:23:56;15.00;99.90
70706;DHT22;59320;52.316;10.870;2023-04-23T04:26:26;15.00;99.90
70706;DHT22;59320;52.316;10.870;2023-04-23T04:28:55;14.90;99.90
70706;DHT22;59320;52.316;10.870;2023-04-23T04:31:23;14.70;99.90
70706;DHT22;59320;52.316;10.870;2023-04-23T04:33:50;14.60;99.90
70706;DHT22;59320;52.316;10.870;2023-04-23T04:36:17;14.50;99.90
70706;DHT22;59320;52.316;10.870;2023-04-23T04:38:44;14.40;99.90
70706;DHT22;59320;52.316;10.870;2023-04-23T04:41:11;14.30;99.90
70706;DHT22;59320;52.316;10.870;2023-04-23T04:43:39;14.30;99.90
70706;DHT22;59320;52.316;10.870;2023-04-23T04:46:09;14.20;99.90
70706;DHT22;59320;52.316;10.870;2023-04-23T04:48:37;14.00;99.90
70706;DHT22;59320;52.316;10.870;2023-04-23T04:51:04;13.90;99.90
70706;DHT22;59320;52.316;10.870;2023-04-23T04:53:31;13.80;99.90
70706;DHT22;59320;52.316;10.870;2023-04-23T04:56:00;13.70;99.90
70706;DHT22;59320;52.316;10.870;2023-04-23T04:58:27;13.80;99.90
70706;DHT22;59320;52.316;10.870;2023-04-23T05:00:55;13.90;99.90
70706;DHT22;59320;52.316;10.870;2023-04-23T05:03:23;13.90;99.90
70706;DHT22;59320;52.316;10.870;2023-04-23T05:05:50;13.90;99.90
70706;DHT22;59320;52.316;10.870;2023-04-23T05:08:19;14.00;99.90
70706;DHT22;59320;52.316;10.870;2023-04-23T05:10:47;13.90;99.90
70706;DHT22;59320;52.316;10.870;2023-04-23T05:13:15;14.00;99.90
70706;DHT22;59320;52.316;10.870;2023-04-23T05:15:44;14.00;99.90
70706;DHT22;59320;52.316;10.870;2023-04-23T05:18:11;14.10;99.90
70706;DHT22;59320;52.316;10.870;2023-04-23T05:20:40;14.10;99.90
70706;DHT22;59320;52.316;10.870;2023-04-23T05:23:09;14.10;99.90
70706;DHT22;59320;52.316;10.870;2023-04-23T05:25:36;14.20;99.90
70706;DHT22;59320;52.316;10.870;2023-04-23T05:28:03;14.20;99.90
70706;DHT22;59320;52.316;10.870;2023-04-23T05:30:33;14.20;99.90
70706;DHT22;59320;52.316;10.870;2023-04-23T05:33:00;14.20;99.90
70706;DHT22;59320;52.316;10.870;2023-04-23T05:35:27;14.20;99.90
70706;DHT22;59320;52.316;10.870;2023-04-23T05:37:58;14.20;99.90
70706;DHT22;59320;52.316;10.870;2023-04-23T05:40:26;14.10;99.90
70706;DHT22;59320;52.316;10.870;2023-04-23T05:42:53;14.00;99.90
70706;DHT22;59320;52.316;10.870;2023-04-23T05:45:20;13.80;99.90
70706;DHT22;59320;52.316;10.870;2023-04-23T05:47:48;13.80;99.90
70706;DHT22;59320;52.316;10.870;2023-04-23T05:50:16;13.90;99.90
70706;DHT22;59320;52.316;10.870;2023-04-23T05:52:43;14.00;99.90
70706;DHT22;59320;52.316;10.870;2023-04-23T05:55:12;14.10;99.90
70706;DHT22;59320;52.316;10.870;2023-04-23T05:57:40;14.10;99.90
70706;DHT22;59320;52.316;10.870;2023-04-23T06:00:09;14.10;99.90
70706;DHT22;59320;52.316;10.870;2023-04-23T06:02:40;14.00;99.90
70706;DHT22;59320;52.316;10.870;2023-04-23T06:05:08;14.20;99.90
70706;DHT22;59320;52.316;10.870;2023-04-23T06:07:35;14.20;99.90
70706;DHT22;59320;52.316;10.870;2023-04-23T06:10:03;14.30;99.90
70706;DHT22;59320;52.316;10.870;2023-04-23T06:12:32;14.50;99.90
70706;DHT22;59320;52.316;10.870;2023-04-23T06:14:59;14.50;99.90
70706;DHT22;59320;52.316;10.870;2023-04-23T06:17:26;14.50;99.90
70706;DHT22;59320;52.316;10.870;2023-04-23T06:19:53;14.50;99.90
70706;DHT22;59320;52.316;10.870;2023-04-23T06:22:20;14.50;99.90
70706;DHT22;59320;52.316;10.870;2023-04-23T06:24:48;14.60;99.90
70706;DHT22;59320;52.316;10.870;2023-04-23T06:27:15;14.70;99.90
70706;DHT22;59320;52.316;10.870;2023-04-23T06:29:49;14.60;99.90
70706;DHT22;59320;52.316;10.870;2023-04-23T06:32:18;14.50;99.90
70706;DHT22;59320;52.316;10.870;2023-04-23T06:34:45;14.50;99.90
70706;DHT22;59320;52.316;10.870;2023-04-23T06:37:12;14.60;99.90
70706;DHT22;59320;52.316;10.870;2023-04-23T06:39:39;14.50;99.90
70706;DHT22;59320;52.316;10.870;2023-04-23T06:42:06;14.70;99.90
70706;DHT22;59320;52.316;10.870;2023-04-23T06:44:44;14.60;99.90
70706;DHT22;59320;52.316;10.870;2023-04-23T06:47:14;14.70;99.90
70706;DHT22;59320;52.316;10.870;2023-04-23T06:49:41;14.70;99.90
70706;DHT22;59320;52.316;10.870;2023-04-23T06:52:08;14.60;99.90
70706;DHT22;59320;52.316;10.870;2023-04-23T06:54:35;14.60;99.90
70706;DHT22;59320;52.316;10.870;2023-04-23T06:57:04;14.60;99.90
70706;DHT22;59320;52.316;10.870;2023-04-23T06:59:31;14.40;99.90
70706;DHT22;59320;52.316;10.870;2023-04-23T07:02:01;14.30;99.90
70706;DHT22;59320;52.316;10.870;2023-04-23T07:04:29;14.20;99.90
70706;DHT22;59320;52.316;10.870;2023-04-23T07:06:56;14.00;99.90
70706;DHT22;59320;52.316;10.870;2023-04-23T07:09:25;13.70;99.90
70706;DHT22;59320;52.316;10.870;2023-04-23T07:11:53;13.80;99.90
70706;DHT22;59320;52.316;10.870;2023-04-23T07:14:20;13.70;99.90
70706;DHT22;59320;52.316;10.870;2023-04-23T07:16:48;13.90;99.90
70706;DHT22;59320;52.316;10.870;2023-04-23T07:19:15;13.80;99.90
70706;DHT22;59320;52.316;10.870;2023-04-23T07:21:43;13.80;99.90
70706;DHT22;59320;52.316;10.870;2023-04-23T07:24:10;13.70;99.90
70706;DHT22;59320;52.316;10.870;2023-04-23T07:26:37;13.70;99.90
70706;DHT22;59320;52.316;10.870;2023-04-23T07:29:04;13.80;99.90
70706;DHT22;59320;52.316;10.870;2023-04-23T07:31:32;13.90;99.90
70706;DHT22;59320;52.316;10.870;2023-04-23T07:33:59;14.00;99.90
70706;DHT22;59320;52.316;10.870;2023-04-23T07:36:27;14.00;99.90
70706;DHT22;59320;52.316;10.870;2023-04-23T07:38:55;13.90;99.90
70706;DHT22;59320;52.316;10.870;2023-04-23T07:41:23;13.80;99.90
70706;DHT22;59320;52.316;10.870;2023-04-23T07:43:52;13.90;99.90
70706;DHT22;59320;52.316;10.870;2023-04-23T07:46:19;13.90;99.90
70706;DHT22;59320;52.316;10.870;2023-04-23T07:48:46;13.90;99.90
70706;DHT22;59320;52.316;10.870;2023-04-23T07:51:13;14.10;99.90
70706;DHT22;59320;52.316;10.870;2023-04-23T07:53:40;14.20;99.90
70706;DHT22;59320;52.316;10.870;2023-04-23T07:56:09;14.10;99.90
70706;DHT22;59320;52.316;10.870;2023-04-23T07:58:37;14.10;99.90
70706;DHT22;59320;52.316;10.870;2023-04-23T08:01:04;14.20;99.90
70706;DHT22;59320;52.316;10.870;2023-04-23T08:03:32;14.20;99.90
70706;DHT22;59320;52.316;10.870;2023-04-23T08:05:59;14.20;99.90
70706;DHT22;59320;52.316;10.870;2023-04-23T08:08:26;14.20;99.90
70706;DHT22;59320;52.316;10.870;2023-04-23T08:10:53;14.30;99.50
70706;DHT22;59320;52.316;10.870;2023-04-23T08:13:21;14.40;99.30
70706;DHT22;59320;52.316;10.870;2023-04-23T08:15:49;14.40;99.00
70706;DHT22;59320;52.316;10.870;2023-04-23T08:18:16;14.40;99.10
70706;DHT22;59320;52.316;10.870;2023-04-23T08:20:43;14.50;98.90
70706;DHT22;59320;52.316;10.870;2023-04-23T08:23:10;14.70;99.00
70706;DHT22;59320;52.316;10.870;2023-04-23T08:25:38;15.00;98.20
70706;DHT22;59320;52.316;10.870;2023-04-23T08:28:05;15.20;98.10
70706;DHT22;59320;52.316;10.870;2023-04-23T08:30:33;15.30;98.20
70706;DHT22;59320;52.316;10.870;2023-04-23T08:33:00;15.20;97.80
70706;DHT22;59320;52.316;10.870;2023-04-23T08:35:28;15.20;97.60
70706;DHT22;59320;52.316;10.870;2023-04-23T08:37:55;15.40;97.10
70706;DHT22;59320;52.316;10.870;2023-04-23T08:40:22;15.50;96.80
70706;DHT22;59320;52.316;10.870;2023-04-23T08:42:53;15.50;95.90
70706;DHT22;59320;52.316;10.870;2023-04-23T08:45:23;15.40;95.80
70706;DHT22;59320;52.316;10.870;2023-04-23T08:47:52;15.50;96.70
70706;DHT22;59320;52.316;10.870;2023-04-23T08:50:24;15.60;96.50
70706;DHT22;59320;52.316;10.870;2023-04-23T08:52:53;15.50;95.90
70706;DHT22;59320;52.316;10.870;2023-04-23T08:55:20;15.50;94.50
70706;DHT22;59320;52.316;10.870;2023-04-23T08:57:48;15.30;95.30
70706;DHT22;59320;52.316;10.870;2023-04-23T09:00:17;15.40;95.40
70706;DHT22;59320;52.316;10.870;2023-04-23T09:02:45;15.50;95.00
70706;DHT22;59320;52.316;10.870;2023-04-23T09:05:14;15.40;95.10
70706;DHT22;59320;52.316;10.870;2023-04-23T09:07:42;15.50;95.30
70706;DHT22;59320;52.316;10.870;2023-04-23T09:10:10;15.70;93.10
70706;DHT22;59320;52.316;10.870;2023-04-23T09:12:40;15.70;93.00
70706;DHT22;59320;52.316;10.870;2023-04-23T09:15:09;16.00;92.30
70706;DHT22;59320;52.316;10.870;2023-04-23T09:17:38;16.10;92.30
70706;DHT22;59320;52.316;10.870;2023-04-23T09:20:06;16.30;92.10
70706;DHT22;59320;52.316;10.870;2023-04-23T09:22:39;16.70;92.70
70706;DHT22;59320;52.316;10.870;2023-04-23T09:25:07;17.00;92.10
70706;DHT22;59320;52.316;10.870;2023-04-23T09:27:35;17.30;91.10
70706;DHT22;59320;52.316;10.870;2023-04-23T09:30:03;17.40;89.00
70706;DHT22;59320;52.316;10.870;2023-04-23T09:32:33;17.30;88.00
70706;DHT22;59320;52.316;10.870;2023-04-23T09:35:04;17.30;87.60
70706;DHT22;59320;52.316;10.870;2023-04-23T09:37:31;17.30;86.40
70706;DHT22;59320;52.316;10.870;2023-04-23T09:40:01;17.10;85.70
70706;DHT22;59320;52.316;10.870;2023-04-23T09:42:30;17.00;84.50
70706;DHT22;59320;52.316;10.870;2023-04-23T09:45:01;17.00;87.10
70706;DHT22;59320;52.316;10.870;2023-04-23T09:47:31;17.00;86.40
70706;DHT22;59320;52.316;10.870;2023-04-23T09:49:59;17.10;83.70
70706;DHT22;59320;52.316;10.870;2023-04-23T09:52:30;17.10;84.00
70706;DHT22;59320;52.316;10.870;2023-04-23T09:55:02;17.30;82.90
70706;DHT22;59320;52.316;10.870;2023-04-23T09:57:30;17.20;81.90
70706;DHT22;59320;52.316;10.870;2023-04-23T09:59:59;17.00;79.40
70706;DHT22;59320;52.316;10.870;2023-04-23T10:02:38;17.10;78.70
70706;DHT22;59320;52.316;10.870;2023-04-23T10:05:14;17.10;79.60
70706;DHT22;59320;52.316;10.870;2023-04-23T10:07:42;17.20;78.90
70706;DHT22;59320;52.316;10.870;2023-04-23T10:10:12;17.30;78.90
70706;DHT22;59320;52.316;10.870;2023-04-23T10:12:39;17.40;80.30
70706;DHT22;59320;52.316;10.870;2023-04-23T10:15:08;17.40;81.10
70706;DHT22;59320;52.316;10.870;2023-04-23T10:17:37;17.50;80.60
70706;DHT22;59320;52.316;10.870;2023-04-23T10:20:06;17.70;79.90
70706;DHT22;59320;52.316;10.870;2023-04-23T10:22:34;17.80;79.50
70706;DHT22;59320;52.316;10.870;2023-04-23T10:25:06;17.80;77.10
70706;DHT22;59320;52.316;10.870;2023-04-23T10:27:38;17.90;77.30
70706;DHT22;59320;52.316;10.870;2023-04-23T10:30:06;18.00;75.20
70706;DHT22;59320;52.316;10.870;2023-04-23T10:32:34;17.90;75.10
70706;DHT22;59320;52.316;10.870;2023-04-23T10:35:01;17.90;75.60
70706;DHT22;59320;52.316;10.870;2023-04-23T10:37:29;17.90;75.80
70706;DHT22;59320;52.316;10.870;2023-04-23T10:40:03;17.90;75.40
70706;DHT22;59320;52.316;10.870;2023-04-23T10:42:37;18.00;75.50
70706;DHT22;59320;52.316;10.870;2023-04-23T10:45:12;18.20;75.60
70706;DHT22;59320;52.316;10.870;2023-04-23T10:47:41;18.10;74.90
70706;DHT22;59320;52.316;10.870;2023-04-23T10:50:23;18.10;72.40
70706;DHT22;59320;52.316;10.870;2023-04-23T10:52:50;18.10;72.80
70706;DHT22;59320;52.316;10.870;2023-04-23T10:55:20;18.20;73.10
70706;DHT22;59320;52.316;10.870;2023-04-23T10:58:02;18.20;73.50
70706;DHT22;59320;52.316;10.870;2023-04-23T11:00:42;18.50;74.90
70706;DHT22;59320;52.316;10.870;2023-04-23T11:03:27;18.80;71.60
70706;DHT22;59320;52.316;10.870;2023-04-23T11:05:55;18.80;68.40
70706;DHT22;59320;52.316;10.870;2023-04-23T11:08:22;18.50;69.80
70706;DHT22;59320;52.316;10.870;2023-04-23T11:10:54;18.40;69.40
70706;DHT22;59320;52.316;10.870;2023-04-23T11:13:24;18.50;69.50
70706;DHT22;59320;52.316;10.870;2023-04-23T11:16:12;18.40;69.10
70706;DHT22;59320;52.316;10.870;2023-04-23T11:18:57;18.30;69.50
70706;DHT22;59320;52.316;10.870;2023-04-23T11:21:58;18.50;69.10
70706;DHT22;59320;52.316;10.870;2023-04-23T11:24:30;18.70;68.50
70706;DHT22;59320;52.316;10.870;2023-04-23T11:26:58;18.90;68.20
70706;DHT22;59320;52.316;10.870;2023-04-23T11:29:27;19.10;66.90
70706;DHT22;59320;52.316;10.870;2023-04-23T11:31:56;19.20;63.80
70706;DHT22;59320;52.316;10.870;2023-04-23T11:34:23;19.20;66.20
70706;DHT22;59320;52.316;10.870;2023-04-23T11:36:52;19.30;65.70
70706;DHT22;59320;52.316;10.870;2023-04-23T11:39:20;19.30;63.70
70706;DHT22;59320;52.316;10.870;2023-04-23T11:41:48;19.20;63.70
70706;DHT22;59320;52.316;10.870;2023-04-23T11:44:17;19.00;62.40
70706;DHT22;59320;52.316;10.870;2023-04-23T11:46:50;18.90;63.10
70706;DHT22;59320;52.316;10.870;2023-04-23T11:49:18;18.80;63.90
70706;DHT22;59320;52.316;10.870;2023-04-23T11:51:45;18.90;65.10
70706;DHT22;59320;52.316;10.870;2023-04-23T11:54:13;19.20;64.50
70706;DHT22;59320;52.316;10.870;2023-04-23T11:56:41;19.40;63.60
70706;DHT22;59320;52.316;10.870;2023-04-23T11:59:08;19.50;63.50
70706;DHT22;59320;52.316;10.870;2023-04-23T12:01:42;19.80;64.10
70706;DHT22;59320;52.316;10.870;2023-04-23T12:04:12;20.00;61.70
70706;DHT22;59320;52.316;10.870;2023-04-23T12:06:40;19.90;59.60
70706;DHT22;59320;52.316;10.870;2023-04-23T12:09:08;19.90;58.60
70706;DHT22;59320;52.316;10.870;2023-04-23T12:11:36;19.70;59.60
70706;DHT22;59320;52.316;10.870;2023-04-23T12:14:03;19.80;59.10
70706;DHT22;59320;52.316;10.870;2023-04-23T12:16:36;19.90;59.40
70706;DHT22;59320;52.316;10.870;2023-04-23T12:19:03;19.90;59.40
70706;DHT22;59320;52.316;10.870;2023-04-23T12:21:32;20.00;60.10
70706;DHT22;59320;52.316;10.870;2023-04-23T12:24:02;20.30;60.00
70706;DHT22;59320;52.316;10.870;2023-04-23T12:26:30;20.50;59.80
70706;DHT22;59320;52.316;10.870;2023-04-23T12:28:58;20.70;59.00
70706;DHT22;59320;52.316;10.870;2023-04-23T12:31:27;20.90;58.20
70706;DHT22;59320;52.316;10.870;2023-04-23T12:33:57;20.80;57.40
70706;DHT22;59320;52.316;10.870;2023-04-23T12:36:27;20.90;58.70
70706;DHT22;59320;52.316;10.870;2023-04-23T12:39:27;21.00;55.70
70706;DHT22;59320;52.316;10.870;2023-04-23T12:41:57;20.90;56.30
70706;DHT22;59320;52.316;10.870;2023-04-23T12:44:26;21.10;57.50
70706;DHT22;59320;52.316;10.870;2023-04-23T12:46:56;21.50;57.90
70706;DHT22;59320;52.316;10.870;2023-04-23T12:49:26;21.70;55.60
70706;DHT22;59320;52.316;10.870;2023-04-23T12:51:54;21.60;53.10
70706;DHT22;59320;52.316;10.870;2023-04-23T12:54:28;21.40;54.10
70706;DHT22;59320;52.316;10.870;2023-04-23T12:56:57;21.40;54.30
70706;DHT22;59320;52.316;10.870;2023-04-23T12:59:25;21.40;54.00
70706;DHT22;59320;52.316;10.870;2023-04-23T13:01:55;21.50;55.10
70706;DHT22;59320;52.316;10.870;2023-04-23T13:04:22;21.50;55.50
70706;DHT22;59320;52.316;10.870;2023-04-23T13:06:50;21.40;55.50
70706;DHT22;59320;52.316;10.870;2023-04-23T13:09:18;21.40;54.70
70706;DHT22;59320;52.316;10.870;2023-04-23T13:11:50;21.50;54.80
70706;DHT22;59320;52.316;10.870;2023-04-23T13:14:17;21.60;55.10
70706;DHT22;59320;52.316;10.870;2023-04-23T13:16:44;21.70;54.70
70706;DHT22;59320;52.316;10.870;2023-04-23T13:19:12;21.80;56.20
70706;DHT22;59320;52.316;10.870;2023-04-23T13:21:41;21.90;55.20
70706;DHT22;59320;52.316;10.870;2023-04-23T13:24:08;21.90;53.90
70706;DHT22;59320;52.316;10.870;2023-04-23T13:26:39;21.90;53.90
70706;DHT22;59320;52.316;10.870;2023-04-23T13:29:07;22.00;54.30
70706;DHT22;59320;52.316;10.870;2023-04-23T13:31:36;22.20;54.10
70706;DHT22;59320;52.316;10.870;2023-04-23T13:34:04;22.50;53.90
70706;DHT22;59320;52.316;10.870;2023-04-23T13:36:31;22.90;53.70
70706;DHT22;59320;52.316;10.870;2023-04-23T13:38:58;23.10;52.50
70706;DHT22;59320;52.316;10.870;2023-04-23T13:41:25;23.00;50.30
70706;DHT22;59320;52.316;10.870;2023-04-23T13:43:52;23.00;50.70
70706;DHT22;59320;52.316;10.870;2023-04-23T13:46:21;22.90;51.40
70706;DHT22;59320;52.316;10.870;2023-04-23T13:48:48;22.80;51.80
70706;DHT22;59320;52.316;10.870;2023-04-23T13:51:16;22.90;51.90
70706;DHT22;59320;52.316;10.870;2023-04-23T13:53:43;22.70;51.20
70706;DHT22;59320;52.316;10.870;2023-04-23T13:56:11;22.70;52.40
70706;DHT22;59320;52.316;10.870;2023-04-23T13:58:39;22.60;52.40
70706;DHT22;59320;52.316;10.870;2023-04-23T14:01:07;22.50;52.10
70706;DHT22;59320;52.316;10.870;2023-04-23T14:03:36;22.40;52.20
70706;DHT22;59320;52.316;10.870;2023-04-23T14:06:03;22.20;52.40
70706;DHT22;59320;52.316;10.870;2023-04-23T14:08:32;22.10;51.70
70706;DHT22;59320;52.316;10.870;2023-04-23T14:11:02;21.90;51.20
70706;DHT22;59320;52.316;10.870;2023-04-23T14:13:31;21.70;51.50
70706;DHT22;59320;52.316;10.870;2023-04-23T14:15:58;21.40;52.10
70706;DHT22;59320;52.316;10.870;2023-04-23T14:18:25;21.40;53.70
70706;DHT22;59320;52.316;10.870;2023-04-23T14:20:54;21.20;54.70
70706;DHT22;59320;52.316;10.870;2023-04-23T14:23:44;21.00;56.20
70706;DHT22;59320;52.316;10.870;2023-04-23T14:26:21;20.50;58.00
70706;DHT22;59320;52.316;10.870;2023-04-23T14:28:50;19.90;63.00
70706;DHT22;59320;52.316;10.870;2023-04-23T14:31:17;19.40;64.90
70706;DHT22;59320;52.316;10.870;2023-04-23T14:33:46;19.40;68.70
70706;DHT22;59320;52.316;10.870;2023-04-23T14:36:15;19.80;68.90
70706;DHT22;59320;52.316;10.870;2023-04-23T14:38:42;20.20;68.20
70706;DHT22;59320;52.316;10.870;2023-04-23T14:41:10;20.50;66.60
70706;DHT22;59320;52.316;10.870;2023-04-23T14:43:37;20.40;64.80
70706;DHT22;59320;52.316;10.870;2023-04-23T14:46:04;20.80;64.40
70706;DHT22;59320;52.316;10.870;2023-04-23T14:48:33;21.60;63.40
70706;DHT22;59320;52.316;10.870;2023-04-23T14:51:01;21.70;62.80
70706;DHT22;59320;52.316;10.870;2023-04-23T14:53:30;21.50;63.00
70706;DHT22;59320;52.316;10.870;2023-04-23T14:55:57;21.10;63.50
70706;DHT22;59320;52.316;10.870;2023-04-23T14:58:25;21.10;65.20
70706;DHT22;59320;52.316;10.870;2023-04-23T15:00:52;21.00;64.80
70706;DHT22;59320;52.316;10.870;2023-04-23T15:03:19;20.90;64.40
70706;DHT22;59320;52.316;10.870;2023-04-23T15:05:47;20.80;64.70
70706;DHT22;59320;52.316;10.870;2023-04-23T15:08:14;20.90;65.10
70706;DHT22;59320;52.316;10.870;2023-04-23T15:10:43;20.70;64.40
70706;DHT22;59320;52.316;10.870;2023-04-23T15:13:30;19.70;66.40
70706;DHT22;59320;52.316;10.870;2023-04-23T15:16:06;19.70;69.00
70706;DHT22;59320;52.316;10.870;2023-04-23T15:18:34;19.80;67.20
70706;DHT22;59320;52.316;10.870;2023-04-23T15:21:01;19.90;66.00
70706;DHT22;59320;52.316;10.870;2023-04-23T15:23:29;19.80;66.20
70706;DHT22;59320;52.316;10.870;2023-04-23T15:25:59;19.40;68.10